Portada
METAR-TAF:

METAR-TAF

Aeroports :

Pointe-Noire, Congo

latitud: 04-49S, longitud: 011-54E, altitud: 17 m

Observació

L'informe es va fer fa 41 minuts, a les 09:00 UTC
Vent 6 kt del Sud, variant entre Sud-Est i Sud/Sud-Oest
Temperatura 25°C
Humitat 83%
Pressió 1015 hPa
Visibilitat: 9000 m
Núvols disperses a una alçada de 1100 ft
Cel ennuvolat a una alçada de 2300 ft

METAR: FCPP 250900Z 17006KT 140V200 9000 SCT011 BKN023 25/22 Q1015 NOSIG

Hora: 10:41 (09:41 UTC)

Pronòstic

L'informe es va fer fa 4 hores i 41 minuts, a les 05:00 UTC
Pronòstic vàlid del 25 a les 06 UTC al 26 a les 06 UTC
Vent 4 kt del Sud
Visibilitat: 3500 m
Núvols disperses a una alçada de 1000 ft
Cel ennuvolat a una alçada de 2200 ft
boirina
Evolucionant progressivament
l' 25 a les 07 UTC al 25 a les 09 UTC
Visibilitat: 8000 m
Evolucionant progressivament
l' 25 a les 23 UTC al 26 a les 03 UTC
Visibilitat: 2500 m
boirina

TAF: FCPP 250500Z 2506/2606 18004KT 3500 BR SCT010 BKN022 BECMG 2507/2509 8000 NSW BECMG 2523/2603 2500 BR

Observacions i pronòstics meteorològics de més de 4000 aeroports (METAR i TAF).

Les estacions disponibles són els punts grocs i vermells al mapa.

Posi el ratolí al punt desitjat per veure el nom de l'estació.

Feu clic per veure les observacions i els pronòstics meteorològics.

Per canviar el mapa: feu clic els botons verds amb una creu de color negre per apropar; al botó verd amb un guió per allunyar la imatge; o en les fletxes verdes per a mapes adjacents.


METAR-TAF: